Weather observations for the past three days for
Mineral Wells, Mineral Wells Airport
Metric (Imperial)
Date Time (cdt) Wind (kph) Vis. (km) Weather Sky Cond. Temperature (ºC) Relative Humidity Wind Chill (°C) Heat Index (°C) Pressure Precipitation (cm)
Air Dwpt 6 hour altimeter (cm) sea level (mb) 1 hr 3 hr 6 hr
Max. Min.
02 13:53 Calm 16.09 Mostly Cloudy BKN070 37.2 18.9 34% 39 76.02 1011.9
02 12:53 S 11 16.09 Partly Cloudy SCT065 SCT080 36.1 18.9 36.7 23.3 36% 38 76.1 1013.0
02 10:53 Calm 16.09 Fair CLR 33.3 20.6 47% 36 76.2 1014.3
02 09:53 SE 9 16.09 Fair CLR 31.7 20.6 52% 34 76.2 1014.3
02 08:53 SE 13 16.09 Fair CLR 27.8 20.6 65% 30 76.2 1014.2
02 07:53 SE 11 16.09 Fair CLR 25 20.6 77% 26 76.17 1014.1
02 06:53 Calm 16.09 Fair CLR 23.9 20 27.2 23.3 79% 24 76.17 1013.8
02 05:53 SE 9 16.09 Fair CLR 24.4 20 77% 25 76.15 1013.4
02 04:53 SE 9 16.09 Fair CLR 25 20 74% 26 76.12 1013.3
02 03:53 SE 9 16.09 Fair CLR 25.6 20 71% 27 76.15 1013.4
02 02:53 SE 13 16.09 Fair CLR 26.7 20 67% 28 76.15 1013.5
02 01:53 SE 15 16.09 Fair CLR 26.7 18.9 62% 28 76.17 1013.8
02 00:53 SE 11 16.09 Fair CLR 27.8 18.3 36.1 27.8 56% 29 76.12 1013.2
01 23:53 SE 9 16.09 Fair CLR 28.3 18.3 55% 29 76.12 1013.0
01 22:53 SE 9 16.09 Fair CLR 28.3 17.8 53% 29 76.1 1012.9
01 21:53 SE 9 16.09 Fair CLR 30 17.8 48% 31 76.07 1012.4
01 20:53 SE 7 16.09 Fair CLR 31.1 17.8 45% 32 76 1011.6
01 19:53 E 15 16.09 Fair CLR 33.9 17.8 38% 35 75.95 1011.1
01 18:53 E 22 16.09 Fair CLR 36.1 17.2 38.3 35 33% 37 75.97 1011.3
01 17:53 E 24 G 39 16.09 Fair CLR 37.2 16.7 30% 38 75.97 1011.3
01 16:53 SE 22 G 37 16.09 A Few Clouds FEW085 38.3 15 25% 38 76 1011.4
01 15:53 SE 19 G 31 16.09 Partly Cloudy FEW080 SCT095 37.8 17.2 30% 39 76.02 1011.9
01 14:53 Vrbl 7 G 28 16.09 Fair CLR 37.2 16.7 30% 38 76.07 1012.6
01 13:53 Calm 0.00 A Few Clouds FEW100 36.7 17.2 32% 38 76.15 1013.5
01 12:53 Calm 16.09 A Few Clouds FEW065 FEW100 FEW110 35.6 18.3 36.1 22.2 36% 37 76.23 1014.5
01 11:53 Calm 16.09 Fair CLR 35 18.9 39% 37 76.28 1015.2
01 10:53 S 15 16.09 Fair CLR 33.3 18.9 43% 35 76.3 1015.4
01 09:53 Vrbl 6 16.09 Fair CLR 30.6 18.9 50% 32 76.3 1015.6
01 08:53 Calm 16.09 Fair CLR 27.8 18.9 58% 29 76.3 1015.6
01 07:53 Calm 16.09 Fair CLR 23.9 18.3 71% 25 76.28 1015.4
01 06:53 SE 7 16.09 Fair CLR 23.9 17.2 27.2 23.3 66% 25 76.23 1014.8
01 05:53 SE 13 16.09 Fair CLR 23.9 16.7 64% 25 76.23 1014.7
01 04:53 SE 9 16.09 Fair CLR 23.9 16.1 62% 25 76.23 1014.4
01 03:53 SE 13 16.09 Fair CLR 25 16.1 58% 26 76.2 1014.1
01 02:53 SE 11 16.09 Fair CLR 25.6 16.1 56% 26 76.17 1014.0
01 01:53 SE 11 16.09 Fair CLR 26.1 16.1 54% 27 76.17 1013.8
01 00:53 SE 11 16.09 Fair CLR 26.1 16.1 36.1 26.1 54% 27 76.15 1013.5
31 23:53 SE 9 16.09 Fair CLR 27.8 15.6 47% 28 76.1 1013.0
31 22:53 SE 7 16.09 Fair CLR 28.3 15.6 46% 28 76.1 1013.1
31 21:53 SE 9 16.09 Fair CLR 29.4 14.4 40% 29 76.07 1012.7
31 20:53 SE 7 16.09 Fair CLR 31.1 13.9 35% 30 76.05 1012.1
31 19:53 SE 9 16.09 Fair CLR 32.8 13.9 32% 32 76 1011.5
31 18:53 SE 19 16.09 Fair CLR 36.1 13.9 38.9 35.6 26% 35 76 1011.5
31 17:53 SE 22 16.09 Fair CLR 36.7 15 27% 37 76 1011.5
31 16:53 SE 19 G 35 16.09 A Few Clouds FEW095 37.8 13.9 24% 37 76.02 1011.8
31 15:53 SE 22 16.09 A Few Clouds FEW095 37.2 13.9 25% 37 76.07 1012.5
31 14:53 SE 26 G 33 16.09 A Few Clouds FEW095 36.7 13.3 24% 36 76.12 1013.1
31 13:53 S 19 G 35 16.09 Partly Cloudy SCT090 37.2 12.8 23% 36 76.17 1013.8
31 12:53 SE 17 G 31 16.09 Fair CLR 36.1 14.4 36.7 22.8 27% 36 76.25 1014.7
31 11:53 SE 20 G 35 16.09 Fair CLR 34.4 16.1 33% 35 76.3 1015.5
31 10:53 S 15 16.09 Fair CLR 32.8 18.3 42% 34 76.3 1015.6
31 09:53 S 11 16.09 Fair CLR 30 19.4 53% 32 76.3 1015.5
31 08:53 SE 6 16.09 Fair CLR 27.2 20 65% 29 76.28 1015.3
31 07:53 SE 7 16.09 Fair CLR 24.4 19.4 74% 25 76.2 1014.5
31 06:53 SE 13 16.09 Fair CLR 23.9 19.4 27.2 23.3 76% 24 76.15 1013.6
31 05:53 SE 15 16.09 Fair CLR 23.9 18.9 74% 25 76.12 1013.1
31 04:53 SE 11 16.09 Fair CLR 23.9 18.3 71% 25 76.1 1012.9
31 03:53 SE 9 16.09 Fair CLR 23.9 17.2 66% 25 76.1 1012.9
31 02:53 SE 15 16.09 Fair CLR 25 16.1 58% 26 76.1 1012.9
31 01:53 SE 17 16.09 Fair CLR 27.2 16.1 51% 28 76.1 1012.6
31 00:53 SE 15 16.09 Fair CLR 26.7 15.6 36.7 26.7 51% 27 76.07 1012.6
30 23:53 SE 13 16.09 Fair CLR 27.2 15 47% 27 76.07 1012.5
30 22:53 S 9 16.09 Fair CLR 28.9 13.9 40% 28 76.07 1012.4
30 21:53 SE 9 16.09 Fair CLR 29.4 13.3 37% 29 76.02 1012.0
30 20:53 SE 11 16.09 Fair CLR 30.6 13.3 35% 30 75.95 1010.9
30 19:53 SE 15 G 33 16.09 Fair CLR 33.9 12.8 28% 33 75.92 1010.5
30 18:53 SE 24 16.09 Fair CLR 36.7 12.2 39.4 36.7 23% 36 75.92 1010.5
30 17:53 SE 24 G 43 16.09 Fair CLR 37.8 12.2 21% 37 75.92 1010.4
30 16:53 SE 17 G 43 16.09 A Few Clouds FEW100 38.9 12.8 21% 38 75.92 1010.6
30 15:53 S 19 G 39 16.09 A Few Clouds FEW100 38.3 13.3 22% 38 75.97 1011.2
30 14:53 S 20 G 30 16.09 A Few Clouds FEW090 38.3 13.9 23% 38 76.05 1012.1
Date Time (cdt) Wind (kph) Vis. (km) Weather Sky Cond. Air Dwpt Max. Min. Relative Humidity Wind Chill (°C) Heat Index (°C) altimeter (cm) sea level (mb) 1 hr 3 hr 6 hr
6 hour
Temperature (ºC) Pressure Precipitation (cm)